createdAt,value
2022-10-02T00:01:19.648Z,10.87
2022-10-02T00:06:22.886Z,10.76
2022-10-02T00:11:26.088Z,10.71
2022-10-02T00:16:29.393Z,10.66
2022-10-02T00:21:34.672Z,10.65
2022-10-02T00:26:38.684Z,10.70
2022-10-02T00:31:42.519Z,10.60
2022-10-02T00:36:45.732Z,10.65
2022-10-02T00:41:49.047Z,10.57
2022-10-02T00:46:52.254Z,10.52
2022-10-02T00:51:55.623Z,10.53
2022-10-02T00:56:58.874Z,10.54
2022-10-02T01:02:05.432Z,10.60
2022-10-02T01:07:08.743Z,10.53
2022-10-02T01:12:12.428Z,10.52
2022-10-02T01:17:15.590Z,10.59
2022-10-02T01:22:19.018Z,10.61
2022-10-02T01:27:23.770Z,10.63
2022-10-02T01:32:29.325Z,10.64
2022-10-02T01:37:32.625Z,10.65
2022-10-02T01:42:36.435Z,10.62
2022-10-02T01:47:40.663Z,10.67
2022-10-02T01:52:43.857Z,10.60
2022-10-02T01:57:47.181Z,10.54
2022-10-02T02:02:50.373Z,10.55
2022-10-02T02:07:53.511Z,10.53
2022-10-02T02:12:56.814Z,10.52
2022-10-02T02:18:00.506Z,10.51
2022-10-02T02:23:03.828Z,10.54
2022-10-02T02:28:07.356Z,10.55
2022-10-02T02:33:10.682Z,10.59
2022-10-02T02:38:14.316Z,10.64
2022-10-02T02:43:18.064Z,10.68
2022-10-02T02:48:21.401Z,10.71
2022-10-02T02:53:27.356Z,10.73
2022-10-02T02:58:30.657Z,10.72
2022-10-02T03:03:33.910Z,10.74
2022-10-02T03:08:37.674Z,10.74
2022-10-02T03:13:40.840Z,10.83
2022-10-02T03:18:44.037Z,10.81
2022-10-02T03:23:47.302Z,10.83
2022-10-02T03:28:55.881Z,10.83
2022-10-02T03:34:00.002Z,10.80
2022-10-02T03:39:24.185Z,10.80
2022-10-02T03:44:27.378Z,10.77
2022-10-02T03:49:31.147Z,10.79
2022-10-02T03:54:34.393Z,10.79
2022-10-02T03:59:37.643Z,10.74
2022-10-02T04:04:41.006Z,10.74
2022-10-02T04:09:44.331Z,10.69
2022-10-02T04:14:51.150Z,10.73
2022-10-02T04:19:54.449Z,10.74
2022-10-02T04:24:57.781Z,10.78
2022-10-02T04:30:01.045Z,10.74
2022-10-02T04:35:04.264Z,10.71
2022-10-02T04:40:07.457Z,10.73
2022-10-02T04:45:10.823Z,10.74
2022-10-02T04:50:14.860Z,10.75
2022-10-02T04:55:18.245Z,10.77
2022-10-02T05:00:21.413Z,10.77
2022-10-02T05:05:24.607Z,10.74
2022-10-02T05:10:27.767Z,10.80
2022-10-02T05:15:30.966Z,10.79
2022-10-02T05:20:34.189Z,10.84
2022-10-02T05:25:43.385Z,10.83
2022-10-02T05:30:46.569Z,10.88
2022-10-02T05:35:50.197Z,10.90
2022-10-02T05:40:53.742Z,10.89
2022-10-02T05:45:58.061Z,10.86
2022-10-02T05:51:01.262Z,10.89
2022-10-02T05:56:04.401Z,10.92
2022-10-02T06:01:09.587Z,10.96
2022-10-02T06:06:12.810Z,10.97
2022-10-02T06:11:15.995Z,10.97
2022-10-02T06:16:19.327Z,11.10
2022-10-02T06:21:22.692Z,11.07
2022-10-02T06:26:29.141Z,11.10
2022-10-02T06:31:32.386Z,11.12
2022-10-02T06:36:42.968Z,11.04
2022-10-02T06:41:47.370Z,11.14
2022-10-02T06:46:52.542Z,11.15
2022-10-02T06:51:55.832Z,11.17
2022-10-02T06:56:59.191Z,11.14
2022-10-02T07:02:02.522Z,11.25
2022-10-02T07:07:05.846Z,11.34
2022-10-02T07:12:09.772Z,11.38
2022-10-02T07:17:12.978Z,11.44
2022-10-02T07:22:42.831Z,11.67
2022-10-02T07:27:39.830Z,11.61
2022-10-02T07:32:43.131Z,11.70
2022-10-02T07:37:46.403Z,11.77
2022-10-02T07:42:51.677Z,11.88
2022-10-02T07:47:54.885Z,12.06
2022-10-02T07:52:58.182Z,12.17
2022-10-02T07:58:01.469Z,12.25
2022-10-02T08:03:04.791Z,12.48
2022-10-02T08:08:07.983Z,12.56
2022-10-02T08:13:11.705Z,12.68
2022-10-02T08:18:33.632Z,12.64
2022-10-02T08:23:38.421Z,12.80
2022-10-02T08:28:44.476Z,12.91
2022-10-02T08:33:47.645Z,12.85
2022-10-02T08:38:54.582Z,12.75
2022-10-02T08:43:58.786Z,13.01
2022-10-02T08:49:02.028Z,13.28
2022-10-02T08:54:05.203Z,13.24
2022-10-02T08:59:08.418Z,13.09
2022-10-02T09:04:13.072Z,13.26
2022-10-02T09:09:16.262Z,13.57
2022-10-02T09:14:19.460Z,13.94
2022-10-02T09:19:22.633Z,13.92
2022-10-02T09:24:25.841Z,14.21
2022-10-02T09:29:30.649Z,14.26
2022-10-02T09:34:33.811Z,14.58
2022-10-02T09:39:36.972Z,14.89
2022-10-02T09:44:40.232Z,14.54
2022-10-02T09:49:43.473Z,14.37
2022-10-02T09:54:47.813Z,14.71
2022-10-02T09:59:51.521Z,14.51
2022-10-02T10:05:05.619Z,14.86
2022-10-02T10:10:09.622Z,14.89
2022-10-02T10:15:12.936Z,15.16
2022-10-02T10:20:17.160Z,15.66
2022-10-02T10:25:21.053Z,15.93
2022-10-02T10:30:32.598Z,16.43
2022-10-02T10:35:36.119Z,16.75
2022-10-02T10:40:39.577Z,16.87
2022-10-02T10:45:42.886Z,17.18
2022-10-02T10:50:52.348Z,17.24
2022-10-02T10:55:59.068Z,17.51
2022-10-02T11:01:02.447Z,17.90
2022-10-02T11:06:05.748Z,18.28
2022-10-02T11:11:09.107Z,18.79
2022-10-02T11:16:13.325Z,18.17
2022-10-02T11:21:16.774Z,17.67
2022-10-02T11:26:21.294Z,17.47
2022-10-02T11:31:25.014Z,17.74
2022-10-02T11:36:29.108Z,18.32
2022-10-02T11:41:32.834Z,18.74
2022-10-02T11:46:36.695Z,18.87
2022-10-02T11:51:43.942Z,18.86
2022-10-02T11:56:47.236Z,18.78
2022-10-02T12:01:52.420Z,18.62
2022-10-02T12:06:55.785Z,18.55
2022-10-02T12:11:59.280Z,18.20
2022-10-02T12:17:02.160Z,18.48
2022-10-02T12:22:22.422Z,18.49
2022-10-02T12:27:25.442Z,18.91
2022-10-02T12:32:28.573Z,18.91
2022-10-02T12:37:31.660Z,18.80
2022-10-02T12:42:34.376Z,18.56
2022-10-02T12:47:37.188Z,18.76
2022-10-02T12:52:40.555Z,19.20
2022-10-02T12:57:56.189Z,19.49
2022-10-02T13:03:01.831Z,19.37
2022-10-02T13:08:07.122Z,19.04
2022-10-02T13:13:10.233Z,18.94
2022-10-02T13:18:13.710Z,18.47
2022-10-02T13:23:16.784Z,15.79
2022-10-02T13:28:20.822Z,13.57
2022-10-02T13:33:23.814Z,12.57
2022-10-02T13:38:26.710Z,12.00
2022-10-02T13:43:29.519Z,11.94
2022-10-02T13:48:32.524Z,11.96
2022-10-02T13:53:35.341Z,11.81
2022-10-02T13:58:38.150Z,11.74
2022-10-02T14:03:41.007Z,11.68
2022-10-02T14:08:43.842Z,11.88
2022-10-02T14:13:46.649Z,11.74
2022-10-02T14:18:49.318Z,11.69
2022-10-02T14:23:51.998Z,11.61
2022-10-02T14:28:54.740Z,11.53
2022-10-02T14:33:57.699Z,11.55
2022-10-02T14:39:00.416Z,11.49
2022-10-02T14:44:03.169Z,11.57
2022-10-02T14:49:06.014Z,11.40
2022-10-02T14:54:09.126Z,11.44
2022-10-02T14:59:11.925Z,11.59
2022-10-02T15:04:16.844Z,11.48
2022-10-02T15:09:19.614Z,11.37
2022-10-02T15:14:22.284Z,11.16
2022-10-02T15:19:25.014Z,11.12
2022-10-02T15:24:27.729Z,11.14
2022-10-02T15:29:30.413Z,11.27
2022-10-02T15:34:33.082Z,11.15
2022-10-02T15:39:36.844Z,11.19
2022-10-02T15:44:39.699Z,11.24
2022-10-02T15:49:42.669Z,11.21
2022-10-02T15:54:46.141Z,11.36
2022-10-02T15:59:48.958Z,11.44
2022-10-02T16:04:51.814Z,11.46
2022-10-02T16:09:54.634Z,11.56
2022-10-02T16:14:57.485Z,11.46
2022-10-02T16:20:02.643Z,11.46
2022-10-02T16:25:06.633Z,11.40
2022-10-02T16:30:11.907Z,11.40
2022-10-02T16:35:16.504Z,11.38
2022-10-02T16:40:20.007Z,11.33
2022-10-02T16:45:23.852Z,11.34
2022-10-02T16:50:26.755Z,11.31
2022-10-02T16:55:29.658Z,11.32
2022-10-02T17:00:42.158Z,11.33
2022-10-02T17:05:46.051Z,11.30
2022-10-02T17:10:48.906Z,11.34
2022-10-02T17:15:51.847Z,11.34
2022-10-02T17:21:02.098Z,11.38
2022-10-02T17:26:04.897Z,11.30
2022-10-02T17:31:07.719Z,11.20
2022-10-02T17:36:12.546Z,11.19
2022-10-02T17:41:15.217Z,11.24
2022-10-02T17:46:17.934Z,11.25
2022-10-02T17:51:50.784Z,11.20
2022-10-02T17:56:44.114Z,11.24
2022-10-02T18:01:46.864Z,11.23
2022-10-02T18:06:49.734Z,11.16
2022-10-02T18:11:53.462Z,11.12
2022-10-02T18:17:05.156Z,11.18
2022-10-02T18:22:10.476Z,11.20
2022-10-02T18:27:14.029Z,11.22
2022-10-02T18:32:16.950Z,11.15
2022-10-02T18:37:20.398Z,11.17
2022-10-02T18:42:23.204Z,11.13
2022-10-02T18:47:26.476Z,11.13
2022-10-02T18:52:29.347Z,11.07
2022-10-02T18:57:32.901Z,11.09
2022-10-02T19:02:35.726Z,11.07
2022-10-02T19:07:39.531Z,11.07
2022-10-02T19:12:42.383Z,11.03
2022-10-02T19:17:45.081Z,11.03
2022-10-02T19:22:50.187Z,10.99
2022-10-02T19:27:54.695Z,11.05
2022-10-02T19:32:57.490Z,11.01
2022-10-02T19:38:03.093Z,10.98
2022-10-02T19:43:06.335Z,11.02
2022-10-02T19:48:09.198Z,10.96
2022-10-02T19:53:11.850Z,10.98
2022-10-02T19:58:14.725Z,10.82
2022-10-02T20:03:17.537Z,10.84
2022-10-02T20:08:20.865Z,10.75
2022-10-02T20:13:23.720Z,10.66
2022-10-02T20:18:26.688Z,10.61
2022-10-02T20:23:29.550Z,10.61
2022-10-02T20:28:32.574Z,10.55
2022-10-02T20:33:35.330Z,10.49
2022-10-02T20:38:38.546Z,10.48
2022-10-02T20:43:41.371Z,10.47
2022-10-02T20:49:07.141Z,10.49
2022-10-02T20:54:07.411Z,10.44
2022-10-02T20:59:12.251Z,10.46
2022-10-02T21:04:16.280Z,10.49
2022-10-02T21:09:19.185Z,10.42
2022-10-02T21:14:22.883Z,10.41
2022-10-02T21:19:26.049Z,10.38
2022-10-02T21:24:28.969Z,10.34
2022-10-02T21:29:32.367Z,10.36
2022-10-02T21:34:35.297Z,10.34
2022-10-02T21:39:38.142Z,10.37
2022-10-02T21:44:41.440Z,10.38
2022-10-02T21:49:44.467Z,10.41
2022-10-02T21:54:55.881Z,10.41
2022-10-02T21:59:58.681Z,10.51
2022-10-02T22:05:01.651Z,10.39
2022-10-02T22:10:04.998Z,10.48
2022-10-02T22:15:07.786Z,10.50
2022-10-02T22:20:10.436Z,10.47
2022-10-02T22:25:13.374Z,10.48
2022-10-02T22:30:16.566Z,10.50
2022-10-02T22:35:20.114Z,10.54
2022-10-02T22:40:23.348Z,10.47
2022-10-02T22:45:26.322Z,10.45
2022-10-02T22:50:29.151Z,10.50
2022-10-02T22:55:33.934Z,10.51
2022-10-02T23:00:36.725Z,10.54
2022-10-02T23:05:39.817Z,10.49
2022-10-02T23:10:44.058Z,10.42
2022-10-02T23:15:46.972Z,10.43
2022-10-02T23:20:50.340Z,10.40
2022-10-02T23:25:53.135Z,10.27
2022-10-02T23:30:56.118Z,10.18
2022-10-02T23:35:58.965Z,10.16
2022-10-02T23:41:19.439Z,9.99
2022-10-02T23:46:22.391Z,9.98
2022-10-02T23:51:25.713Z,9.82
2022-10-02T23:56:28.565Z,9.87
